createdAt,value
2024-01-08T00:00:12.068Z,4.70
2024-01-08T00:02:40.043Z,4.82
2024-01-08T00:05:08.459Z,4.72
2024-01-08T00:07:36.532Z,4.93
2024-01-08T00:10:06.551Z,4.43
2024-01-08T00:12:34.502Z,4.32
2024-01-08T00:15:02.476Z,4.22
2024-01-08T00:17:30.506Z,4.43
2024-01-08T00:19:58.540Z,4.18
2024-01-08T00:22:27.480Z,4.45
2024-01-08T00:24:55.580Z,4.72
2024-01-08T00:27:24.897Z,4.18
2024-01-08T00:29:53.145Z,3.67
2024-01-08T00:32:21.220Z,4.28
2024-01-08T00:34:49.271Z,4.47
2024-01-08T00:37:17.267Z,4.40
2024-01-08T00:39:45.547Z,3.67
2024-01-08T00:42:13.608Z,5.00
2024-01-08T00:44:42.925Z,4.45
2024-01-08T00:47:11.010Z,4.57
2024-01-08T00:49:39.069Z,4.93
2024-01-08T00:52:07.404Z,4.43
2024-01-08T00:54:35.464Z,4.40
2024-01-08T00:57:03.622Z,5.38
2024-01-08T00:59:31.641Z,4.47
2024-01-08T01:02:01.004Z,4.55
2024-01-08T01:04:29.740Z,4.60
2024-01-08T01:06:57.947Z,4.93
2024-01-08T01:09:25.894Z,4.70
2024-01-08T01:11:54.214Z,4.65
2024-01-08T01:14:22.329Z,5.07
2024-01-08T01:16:50.422Z,4.80
2024-01-08T01:19:22.999Z,5.50
2024-01-08T01:21:51.527Z,5.18
2024-01-08T01:24:19.572Z,4.65
2024-01-08T01:26:47.469Z,4.95
2024-01-08T01:29:15.546Z,4.75
2024-01-08T01:31:43.599Z,4.97
2024-01-08T01:34:12.168Z,5.07
2024-01-08T01:36:41.977Z,5.80
2024-01-08T01:39:10.690Z,5.18
2024-01-08T01:41:38.752Z,5.28
2024-01-08T01:44:06.792Z,4.65
2024-01-08T01:46:40.975Z,5.25
2024-01-08T01:49:12.489Z,5.50
2024-01-08T01:54:09.937Z,5.30
2024-01-08T01:56:38.432Z,4.63
2024-01-08T01:59:06.402Z,4.93
2024-01-08T02:01:35.110Z,4.97
2024-01-08T02:04:06.262Z,5.80
2024-01-08T02:06:36.090Z,5.35
2024-01-08T02:09:04.567Z,4.95
2024-01-08T02:11:33.932Z,5.18
2024-01-08T02:14:01.898Z,5.95
2024-01-08T02:16:29.981Z,5.38
2024-01-08T02:18:58.118Z,5.10
2024-01-08T02:21:26.259Z,5.72
2024-01-08T02:23:56.344Z,5.07
2024-01-08T02:26:24.498Z,5.10
2024-01-08T02:28:52.629Z,5.40
2024-01-08T02:31:21.262Z,5.30
2024-01-08T02:33:49.293Z,4.97
2024-01-08T02:36:17.350Z,5.60
2024-01-08T02:38:45.695Z,4.80
2024-01-08T02:41:15.091Z,5.47
2024-01-08T02:43:43.154Z,5.50
2024-01-08T02:46:11.154Z,5.18
2024-01-08T02:48:39.283Z,5.07
2024-01-08T02:51:07.406Z,5.00
2024-01-08T02:53:35.604Z,5.00
2024-01-08T02:56:03.783Z,5.45
2024-01-08T02:58:33.191Z,5.03
2024-01-08T03:01:01.388Z,4.80
2024-01-08T03:03:29.463Z,5.40
2024-01-08T03:05:57.612Z,4.85
2024-01-08T03:08:25.715Z,5.38
2024-01-08T03:10:53.769Z,4.68
2024-01-08T03:13:21.728Z,5.05
2024-01-08T03:15:51.106Z,5.70
2024-01-08T03:18:19.210Z,5.00
2024-01-08T03:20:47.309Z,5.13
2024-01-08T03:23:15.386Z,5.00
2024-01-08T03:25:43.480Z,5.28
2024-01-08T03:28:11.415Z,4.85
2024-01-08T03:30:39.409Z,4.70
2024-01-08T03:33:09.057Z,4.82
2024-01-08T03:35:37.157Z,4.65
2024-01-08T03:38:05.453Z,4.78
2024-01-08T03:40:33.520Z,5.18
2024-01-08T03:43:01.667Z,4.65
2024-01-08T03:45:29.674Z,6.05
2024-01-08T03:47:57.823Z,5.63
2024-01-08T03:50:27.382Z,5.88
2024-01-08T03:52:55.759Z,4.85
2024-01-08T03:55:23.772Z,5.68
2024-01-08T03:57:51.864Z,6.60
2024-01-08T04:00:20.276Z,6.30
2024-01-08T04:02:48.336Z,5.80
2024-01-08T04:05:16.631Z,5.05
2024-01-08T04:07:49.409Z,6.00
2024-01-08T04:10:17.548Z,5.15
2024-01-08T04:12:45.527Z,5.50
2024-01-08T04:15:13.567Z,5.93
2024-01-08T04:17:41.840Z,6.40
2024-01-08T04:20:10.462Z,6.68
2024-01-08T04:22:38.625Z,6.70
2024-01-08T04:25:08.538Z,6.65
2024-01-08T04:27:36.907Z,5.93
2024-01-08T04:30:05.339Z,6.70
2024-01-08T04:32:33.372Z,6.43
2024-01-08T04:35:01.603Z,6.18
2024-01-08T04:37:29.618Z,7.00
2024-01-08T04:40:02.060Z,7.35
2024-01-08T04:42:31.433Z,7.00
2024-01-08T04:44:59.565Z,6.38
2024-01-08T04:47:28.011Z,6.78
2024-01-08T04:49:56.243Z,6.53
2024-01-08T04:52:24.273Z,7.35
2024-01-08T04:54:52.249Z,7.30
2024-01-08T04:57:20.346Z,7.35
2024-01-08T04:59:49.667Z,7.10
2024-01-08T05:02:17.751Z,7.57
2024-01-08T05:04:44.753Z,6.88
2024-01-08T05:07:13.729Z,7.57
2024-01-08T05:09:41.677Z,7.40
2024-01-08T05:12:09.867Z,7.95
2024-01-08T05:14:37.904Z,7.43
2024-01-08T05:17:07.365Z,7.22
2024-01-08T05:19:35.569Z,6.88
2024-01-08T05:22:03.614Z,6.50
2024-01-08T05:24:31.664Z,7.45
2024-01-08T05:26:59.793Z,6.72
2024-01-08T05:29:27.953Z,8.18
2024-01-08T05:31:56.081Z,7.30
2024-01-08T05:34:25.562Z,6.95
2024-01-08T05:36:53.718Z,7.13
2024-01-08T05:39:21.686Z,6.82
2024-01-08T05:41:49.680Z,6.88
2024-01-08T05:44:18.320Z,6.63
2024-01-08T05:46:46.959Z,6.43
2024-01-08T05:49:15.438Z,6.65
2024-01-08T05:51:44.853Z,7.78
2024-01-08T05:54:12.782Z,6.95
2024-01-08T05:56:40.805Z,7.18
2024-01-08T05:59:09.334Z,6.43
2024-01-08T06:01:37.749Z,7.05
2024-01-08T06:04:05.873Z,6.57
2024-01-08T06:06:33.954Z,6.80
2024-01-08T06:09:03.440Z,7.97
2024-01-08T06:11:31.513Z,6.22
2024-01-08T06:13:59.651Z,6.00
2024-01-08T06:16:32.156Z,6.15
2024-01-08T06:19:00.502Z,6.20
2024-01-08T06:21:28.593Z,6.05
2024-01-08T06:23:58.990Z,6.07
2024-01-08T06:26:31.464Z,5.25
2024-01-08T06:28:59.558Z,6.43
2024-01-08T06:31:27.570Z,7.03
2024-01-08T06:33:55.925Z,5.90
2024-01-08T06:36:23.963Z,4.38
2024-01-08T06:38:52.045Z,5.10
2024-01-08T06:41:20.141Z,6.20
2024-01-08T06:43:49.547Z,5.20
2024-01-08T06:46:19.997Z,5.70
2024-01-08T06:48:48.205Z,6.30
2024-01-08T06:51:16.212Z,4.78
2024-01-08T06:53:44.291Z,5.47
2024-01-08T06:56:12.399Z,4.72
2024-01-08T06:58:40.320Z,5.40
2024-01-08T07:01:09.841Z,5.13
2024-01-08T07:03:37.983Z,4.47
2024-01-08T07:06:07.012Z,5.03
2024-01-08T07:08:35.467Z,5.30
2024-01-08T07:11:03.629Z,5.57
2024-01-08T07:13:31.738Z,5.55
2024-01-08T07:15:59.862Z,5.07
2024-01-08T07:18:30.485Z,5.30
2024-01-08T07:20:58.693Z,4.97
2024-01-08T07:23:26.993Z,4.80
2024-01-08T07:25:55.243Z,5.03
2024-01-08T07:28:23.798Z,4.28
2024-01-08T07:30:51.862Z,4.57
2024-01-08T07:33:19.984Z,4.75
2024-01-08T07:35:49.738Z,5.00
2024-01-08T07:38:17.883Z,4.97
2024-01-08T07:40:46.009Z,5.47
2024-01-08T07:43:14.058Z,5.03
2024-01-08T07:45:42.298Z,5.57
2024-01-08T07:48:10.387Z,5.45
2024-01-08T07:50:38.624Z,4.70
2024-01-08T07:53:08.036Z,5.45
2024-01-08T07:55:39.150Z,5.07
2024-01-08T07:58:07.985Z,5.45
2024-01-08T08:00:36.919Z,5.50
2024-01-08T08:03:06.027Z,5.65
2024-01-08T08:05:34.275Z,5.95
2024-01-08T08:08:02.351Z,5.70
2024-01-08T08:10:31.671Z,6.03
2024-01-08T08:12:59.657Z,5.68
2024-01-08T08:15:27.710Z,5.53
2024-01-08T08:17:55.895Z,5.82
2024-01-08T08:20:24.623Z,4.63
2024-01-08T08:22:52.839Z,5.43
2024-01-08T08:25:21.335Z,5.72
2024-01-08T08:27:50.833Z,5.60
2024-01-08T08:30:21.085Z,5.65
2024-01-08T08:32:49.545Z,6.00
2024-01-08T08:35:17.990Z,6.72
2024-01-08T08:37:52.944Z,6.57
2024-01-08T08:40:23.182Z,6.28
2024-01-08T08:42:53.384Z,5.70
2024-01-08T08:45:21.619Z,6.28
2024-01-08T08:47:49.880Z,6.55
2024-01-08T08:50:19.045Z,5.80
2024-01-08T08:52:47.853Z,5.80
2024-01-08T08:55:16.268Z,5.93
2024-01-08T08:57:44.708Z,6.15
2024-01-08T09:00:17.113Z,5.90
2024-01-08T09:02:47.844Z,6.20
2024-01-08T09:05:22.198Z,6.43
2024-01-08T09:07:56.042Z,5.82
2024-01-08T09:10:24.100Z,6.60
2024-01-08T09:12:53.464Z,5.80
2024-01-08T09:15:22.930Z,7.15
2024-01-08T09:17:51.275Z,5.72
2024-01-08T09:20:19.744Z,5.10
2024-01-08T09:22:47.804Z,6.18
2024-01-08T09:25:15.871Z,6.72
2024-01-08T09:27:44.238Z,5.80
2024-01-08T09:30:13.390Z,5.90
2024-01-08T09:32:43.863Z,5.88
2024-01-08T09:35:12.054Z,5.47
2024-01-08T09:37:40.077Z,5.50
2024-01-08T09:40:08.748Z,5.55
2024-01-08T09:42:37.412Z,5.88
2024-01-08T09:45:09.639Z,7.55
2024-01-08T09:47:41.609Z,5.50
2024-01-08T09:50:11.952Z,5.85
2024-01-08T09:52:42.538Z,5.45
2024-01-08T09:55:11.881Z,6.13
2024-01-08T09:57:40.361Z,6.35
2024-01-08T10:00:11.308Z,5.50
2024-01-08T10:02:42.704Z,4.93
2024-01-08T10:05:12.387Z,5.90
2024-01-08T10:07:41.563Z,5.60
2024-01-08T10:10:09.909Z,7.00
2024-01-08T10:12:38.316Z,5.00
2024-01-08T10:15:07.428Z,5.47
2024-01-08T10:17:36.741Z,5.47
2024-01-08T10:20:09.255Z,5.70
2024-01-08T10:22:39.275Z,4.88
2024-01-08T10:25:07.735Z,5.13
2024-01-08T10:27:35.825Z,4.88
2024-01-08T10:30:04.330Z,5.80
2024-01-08T10:32:32.702Z,4.43
2024-01-08T10:35:01.155Z,5.10
2024-01-08T10:37:29.519Z,4.82
2024-01-08T10:39:59.004Z,4.20
2024-01-08T10:42:27.012Z,4.80
2024-01-08T10:44:55.022Z,4.93
2024-01-08T10:47:28.756Z,4.43
2024-01-08T10:49:59.746Z,4.32
2024-01-08T10:52:28.528Z,4.00
2024-01-08T10:55:00.567Z,4.03
2024-01-08T10:57:39.403Z,4.80
2024-01-08T11:00:10.972Z,4.15
2024-01-08T11:02:40.154Z,4.28
2024-01-08T11:05:10.062Z,4.65
2024-01-08T11:07:39.751Z,4.00
2024-01-08T11:10:10.198Z,3.30
2024-01-08T11:12:40.743Z,3.70
2024-01-08T11:15:09.704Z,3.75
2024-01-08T11:17:38.078Z,3.92
2024-01-08T11:20:08.493Z,3.80
2024-01-08T11:22:39.068Z,2.80
2024-01-08T11:25:07.741Z,2.95
2024-01-08T11:27:36.656Z,3.30
2024-01-08T11:30:08.359Z,3.50
2024-01-08T11:32:53.196Z,3.70
2024-01-08T11:35:22.127Z,3.88
2024-01-08T11:37:57.606Z,3.38
2024-01-08T11:40:26.198Z,3.55
2024-01-08T11:42:54.851Z,3.38
2024-01-08T11:45:24.876Z,3.30
2024-01-08T11:47:52.964Z,3.28
2024-01-08T11:50:21.525Z,3.22
2024-01-08T11:52:50.168Z,3.05
2024-01-08T11:55:18.251Z,3.05
2024-01-08T11:57:46.800Z,2.80
2024-01-08T12:00:16.001Z,2.45
2024-01-08T12:02:45.512Z,2.97
2024-01-08T12:05:13.883Z,2.90
2024-01-08T12:07:42.462Z,3.00
2024-01-08T12:10:13.726Z,3.10
2024-01-08T12:12:42.461Z,2.90
2024-01-08T12:15:11.000Z,3.20
2024-01-08T12:17:39.534Z,3.47
2024-01-08T12:20:09.925Z,3.45
2024-01-08T12:22:37.976Z,3.55
2024-01-08T12:25:08.024Z,3.70
2024-01-08T12:27:36.364Z,3.70
2024-01-08T12:30:05.048Z,3.17
2024-01-08T12:32:33.323Z,3.03
2024-01-08T12:35:06.319Z,3.00
2024-01-08T12:37:36.475Z,2.60
2024-01-08T12:40:05.953Z,2.67
2024-01-08T12:42:35.669Z,2.90
2024-01-08T12:45:05.862Z,3.15
2024-01-08T12:47:34.105Z,2.88
2024-01-08T12:50:02.269Z,2.60
2024-01-08T12:52:30.271Z,2.70
2024-01-08T12:54:59.606Z,2.75
2024-01-08T12:57:31.228Z,2.47
2024-01-08T12:59:59.533Z,2.58
2024-01-08T13:02:30.404Z,3.17
2024-01-08T13:04:58.524Z,2.53
2024-01-08T13:07:27.146Z,2.55
2024-01-08T13:09:55.246Z,3.13
2024-01-08T13:12:25.064Z,2.22
2024-01-08T13:14:53.065Z,2.95
2024-01-08T13:17:21.452Z,2.30
2024-01-08T13:19:49.502Z,2.60
2024-01-08T13:22:17.497Z,2.70
2024-01-08T13:24:45.426Z,2.70
2024-01-08T13:27:15.371Z,2.55
2024-01-08T13:29:45.146Z,2.40
2024-01-08T13:32:16.613Z,2.40
2024-01-08T13:37:12.515Z,2.10
2024-01-08T13:39:40.596Z,2.67
2024-01-08T13:42:10.240Z,2.20
2024-01-08T13:44:38.771Z,2.45
2024-01-08T13:47:08.507Z,2.25
2024-01-08T13:49:37.033Z,2.45
2024-01-08T13:52:05.188Z,2.60
2024-01-08T13:54:33.151Z,3.10
2024-01-08T13:57:01.147Z,2.75
2024-01-08T13:59:30.003Z,2.72
2024-01-08T14:01:58.372Z,3.00
2024-01-08T14:04:27.700Z,3.08
2024-01-08T14:06:55.728Z,3.08
2024-01-08T14:09:23.957Z,2.53
2024-01-08T14:11:51.942Z,2.92
2024-01-08T14:14:20.072Z,2.92
2024-01-08T14:16:48.413Z,3.50
2024-01-08T14:19:17.071Z,3.05
2024-01-08T14:21:47.386Z,2.97
2024-01-08T14:24:15.322Z,2.70
2024-01-08T14:26:43.377Z,3.60
2024-01-08T14:29:11.606Z,3.20
2024-01-08T14:31:39.696Z,2.97
2024-01-08T14:34:07.837Z,2.45
2024-01-08T14:39:08.625Z,2.67
2024-01-08T14:41:36.888Z,3.47
2024-01-08T14:44:05.134Z,2.45
2024-01-08T14:46:33.468Z,3.03
2024-01-08T14:49:01.562Z,3.13
2024-01-08T14:51:29.838Z,3.10
2024-01-08T14:53:57.949Z,2.95
2024-01-08T14:56:27.341Z,2.92
2024-01-08T14:58:56.040Z,3.03
2024-01-08T15:01:23.997Z,3.38
2024-01-08T15:03:52.043Z,4.57
2024-01-08T15:06:20.850Z,3.08
2024-01-08T15:08:49.002Z,2.70
2024-01-08T15:11:17.201Z,3.03
2024-01-08T15:13:46.587Z,3.13
2024-01-08T15:16:14.685Z,2.83
2024-01-08T15:18:42.950Z,3.25
2024-01-08T15:21:10.923Z,2.83
2024-01-08T15:23:38.978Z,3.20
2024-01-08T15:26:07.536Z,3.25
2024-01-08T15:28:35.705Z,2.75
2024-01-08T15:31:06.233Z,3.45
2024-01-08T15:33:34.821Z,3.03
2024-01-08T15:36:04.863Z,3.05
2024-01-08T15:38:33.727Z,3.42
2024-01-08T15:41:01.793Z,2.90
2024-01-08T15:43:30.561Z,3.17
2024-01-08T15:46:01.934Z,3.40
2024-01-08T15:48:31.412Z,3.63
2024-01-08T15:50:59.390Z,3.00
2024-01-08T15:53:27.498Z,3.05
2024-01-08T15:55:56.685Z,3.28
2024-01-08T15:58:24.726Z,2.83
2024-01-08T16:00:52.846Z,3.20
2024-01-08T16:03:20.946Z,2.90
2024-01-08T16:05:50.564Z,2.90
2024-01-08T16:08:19.224Z,3.38
2024-01-08T16:10:47.911Z,2.90
2024-01-08T16:13:15.879Z,3.20
2024-01-08T16:15:44.082Z,3.17
2024-01-08T16:18:14.412Z,3.75
2024-01-08T16:20:42.777Z,3.20
2024-01-08T16:23:12.171Z,3.20
2024-01-08T16:25:40.250Z,3.17
2024-01-08T16:28:08.228Z,3.53
2024-01-08T16:30:36.298Z,3.88
2024-01-08T16:33:04.743Z,4.05
2024-01-08T16:35:33.138Z,3.33
2024-01-08T16:38:01.408Z,3.85
2024-01-08T16:40:30.903Z,3.75
2024-01-08T16:42:58.830Z,3.60
2024-01-08T16:45:26.916Z,3.78
2024-01-08T16:47:55.972Z,3.60
2024-01-08T16:50:24.755Z,3.53
2024-01-08T16:52:52.886Z,3.85
2024-01-08T16:55:20.868Z,4.53
2024-01-08T16:57:50.285Z,3.97
2024-01-08T17:00:18.777Z,3.35
2024-01-08T17:02:47.020Z,3.92
2024-01-08T17:05:15.241Z,3.38
2024-01-08T17:07:43.672Z,3.72
2024-01-08T17:10:11.895Z,3.35
2024-01-08T17:12:39.931Z,3.22
2024-01-08T17:15:10.735Z,3.30
2024-01-08T17:17:40.147Z,3.25
2024-01-08T17:20:08.946Z,2.83
2024-01-08T17:22:36.965Z,3.53
2024-01-08T17:25:05.011Z,3.05
2024-01-08T17:27:32.960Z,3.80
2024-01-08T17:30:01.007Z,3.95
2024-01-08T17:32:30.632Z,3.72
2024-01-08T17:34:58.841Z,3.42
2024-01-08T17:37:27.021Z,3.92
2024-01-08T17:39:54.956Z,3.78
2024-01-08T17:42:22.996Z,3.22
2024-01-08T17:44:52.235Z,4.35
2024-01-08T17:47:20.403Z,3.70
2024-01-08T17:49:50.251Z,3.22
2024-01-08T17:52:18.215Z,3.80
2024-01-08T17:54:46.157Z,3.63
2024-01-08T17:57:14.839Z,3.42
2024-01-08T17:59:43.889Z,3.78
2024-01-08T18:02:11.973Z,3.70
2024-01-08T18:04:40.151Z,3.53
2024-01-08T18:07:09.936Z,3.42
2024-01-08T18:09:38.616Z,3.90
2024-01-08T18:12:06.902Z,3.42
2024-01-08T18:14:34.849Z,4.18
2024-01-08T18:17:04.676Z,3.83
2024-01-08T18:19:32.978Z,3.67
2024-01-08T18:22:00.989Z,3.88
2024-01-08T18:24:32.369Z,3.78
2024-01-08T18:27:01.645Z,3.35
2024-01-08T18:29:30.123Z,3.65
2024-01-08T18:31:58.162Z,3.30
2024-01-08T18:34:26.831Z,3.92
2024-01-08T18:36:55.734Z,4.05
2024-01-08T18:39:23.742Z,3.60
2024-01-08T18:41:53.262Z,3.50
2024-01-08T18:44:21.365Z,3.33
2024-01-08T18:46:49.391Z,3.97
2024-01-08T18:49:17.480Z,4.07
2024-01-08T18:51:45.630Z,4.20
2024-01-08T18:54:13.677Z,4.00
2024-01-08T18:56:41.911Z,4.97
2024-01-08T18:59:11.751Z,4.47
2024-01-08T19:01:39.853Z,3.58
2024-01-08T19:04:08.062Z,3.95
2024-01-08T19:06:38.467Z,4.20
2024-01-08T19:09:07.247Z,3.58
2024-01-08T19:11:35.469Z,3.95
2024-01-08T19:14:03.748Z,4.20
2024-01-08T19:16:33.136Z,3.83
2024-01-08T19:19:01.395Z,3.38
2024-01-08T19:21:29.446Z,3.45
2024-01-08T19:24:05.296Z,3.55
2024-01-08T19:26:33.465Z,3.30
2024-01-08T19:29:01.623Z,3.63
2024-01-08T19:31:31.492Z,2.95
2024-01-08T19:34:00.985Z,3.50
2024-01-08T19:36:29.017Z,3.97
2024-01-08T19:38:56.966Z,3.90
2024-01-08T19:41:25.508Z,3.28
2024-01-08T19:43:53.660Z,3.65
2024-01-08T19:46:21.777Z,3.92
2024-01-08T19:48:49.993Z,3.53
2024-01-08T19:51:19.510Z,3.35
2024-01-08T19:53:47.631Z,3.15
2024-01-08T19:56:16.011Z,3.33
2024-01-08T19:58:45.461Z,4.07
2024-01-08T20:01:14.317Z,3.10
2024-01-08T20:03:42.344Z,3.60
2024-01-08T20:06:10.610Z,3.47
2024-01-08T20:08:40.112Z,3.47
2024-01-08T20:11:09.608Z,3.33
2024-01-08T20:13:38.503Z,4.15
2024-01-08T20:16:07.473Z,3.70
2024-01-08T20:18:35.556Z,3.88
2024-01-08T20:21:05.800Z,5.03
2024-01-08T20:23:34.238Z,3.88
2024-01-08T20:26:08.355Z,3.47
2024-01-08T20:28:36.589Z,4.00
2024-01-08T20:31:04.782Z,4.00
2024-01-08T20:33:33.115Z,3.58
2024-01-08T20:36:01.555Z,4.32
2024-01-08T20:38:30.121Z,3.65
2024-01-08T20:40:58.641Z,4.38
2024-01-08T20:43:28.079Z,2.63
2024-01-08T20:45:59.194Z,3.13
2024-01-08T20:48:27.263Z,3.20
2024-01-08T20:50:55.455Z,3.50
2024-01-08T20:53:23.577Z,3.45
2024-01-08T20:55:51.664Z,3.45
2024-01-08T20:58:19.887Z,3.28
2024-01-08T21:00:49.191Z,4.00
2024-01-08T21:03:17.358Z,3.40
2024-01-08T21:05:45.543Z,3.50
2024-01-08T21:08:14.437Z,2.85
2024-01-08T21:10:42.510Z,3.13
2024-01-08T21:13:13.542Z,3.53
2024-01-08T21:15:42.004Z,3.53
2024-01-08T21:18:12.043Z,4.85
2024-01-08T21:20:40.254Z,3.95
2024-01-08T21:23:08.669Z,3.55
2024-01-08T21:25:36.890Z,3.45
2024-01-08T21:28:05.131Z,3.30
2024-01-08T21:30:33.294Z,3.55
2024-01-08T21:33:01.541Z,2.78
2024-01-08T21:35:31.127Z,3.38
2024-01-08T21:37:59.187Z,3.10
2024-01-08T21:40:27.827Z,3.30
2024-01-08T21:42:55.867Z,3.05
2024-01-08T21:45:23.857Z,3.13
2024-01-08T21:47:51.896Z,3.42
2024-01-08T21:50:20.297Z,3.67
2024-01-08T21:52:49.694Z,3.53
2024-01-08T21:55:17.680Z,3.28
2024-01-08T21:57:45.753Z,2.58
2024-01-08T22:00:14.009Z,3.10
2024-01-08T22:02:42.011Z,2.90
2024-01-08T22:05:11.299Z,2.58
2024-01-08T22:07:40.338Z,2.88
2024-01-08T22:10:10.957Z,2.65
2024-01-08T22:12:42.352Z,2.70
2024-01-08T22:15:11.083Z,2.45
2024-01-08T22:17:39.318Z,3.13
2024-01-08T22:20:07.930Z,2.83
2024-01-08T22:22:38.476Z,3.30
2024-01-08T22:25:06.844Z,3.05
2024-01-08T22:27:36.312Z,3.03
2024-01-08T22:30:04.786Z,3.15
2024-01-08T22:32:33.062Z,3.03
2024-01-08T22:35:01.277Z,2.97
2024-01-08T22:37:29.335Z,2.67
2024-01-08T22:39:57.547Z,2.67
2024-01-08T22:42:26.813Z,2.70
2024-01-08T22:44:56.969Z,2.80
2024-01-08T22:47:25.162Z,3.10
2024-01-08T22:49:53.331Z,2.83
2024-01-08T22:52:21.565Z,2.50
2024-01-08T22:54:49.616Z,2.90
2024-01-08T22:57:17.784Z,2.58
2024-01-08T22:59:45.985Z,2.75
2024-01-08T23:02:15.867Z,2.78
2024-01-08T23:04:43.921Z,3.10
2024-01-08T23:07:11.976Z,2.90
2024-01-08T23:09:39.968Z,2.47
2024-01-08T23:12:08.352Z,2.42
2024-01-08T23:14:36.722Z,2.50
2024-01-08T23:17:04.932Z,2.40
2024-01-08T23:19:36.439Z,2.70
2024-01-08T23:24:33.032Z,2.72
2024-01-08T23:27:02.022Z,3.00
2024-01-08T23:29:30.192Z,3.25
2024-01-08T23:31:58.202Z,2.67
2024-01-08T23:34:26.229Z,2.00
2024-01-08T23:36:55.735Z,2.58
2024-01-08T23:39:23.771Z,2.72
2024-01-08T23:41:51.961Z,2.63
2024-01-08T23:44:20.121Z,2.88
2024-01-08T23:46:48.075Z,2.30
2024-01-08T23:49:16.857Z,2.42
2024-01-08T23:51:45.054Z,3.10
2024-01-08T23:54:14.393Z,2.42
2024-01-08T23:56:42.372Z,3.08
2024-01-08T23:59:10.605Z,2.53
